createdAt,value
2019-02-27T00:00:19.815Z,21.83
2019-02-27T00:03:07.595Z,24.37
2019-02-27T00:05:55.485Z,34.53
2019-02-27T00:08:43.493Z,23.07
2019-02-27T00:11:31.387Z,22.30
2019-02-27T00:14:19.259Z,20.63
2019-02-27T00:17:08.295Z,20.30
2019-02-27T00:19:56.292Z,21.30
2019-02-27T00:22:44.408Z,23.90
2019-02-27T00:25:35.917Z,22.33
2019-02-27T00:28:23.427Z,22.33
2019-02-27T00:31:12.098Z,20.80
2019-02-27T00:34:00.533Z,18.03
2019-02-27T00:36:48.890Z,21.73
2019-02-27T00:39:36.747Z,22.17
2019-02-27T00:42:33.260Z,24.63
2019-02-27T00:45:14.251Z,23.13
2019-02-27T00:48:02.585Z,23.67
2019-02-27T00:50:50.410Z,22.53
2019-02-27T00:53:38.592Z,22.67
2019-02-27T00:56:26.628Z,24.00
2019-02-27T00:59:14.969Z,24.07
2019-02-27T01:02:03.278Z,24.10
2019-02-27T01:04:50.827Z,23.60
2019-02-27T01:07:38.918Z,24.63
2019-02-27T01:10:27.027Z,26.97
2019-02-27T01:13:14.673Z,24.20
2019-02-27T01:16:02.832Z,28.93
2019-02-27T01:18:51.051Z,26.67
2019-02-27T01:21:39.029Z,21.20
2019-02-27T01:24:27.329Z,25.23
2019-02-27T01:27:15.493Z,27.43
2019-02-27T01:30:03.282Z,24.43
2019-02-27T01:32:51.508Z,24.57
2019-02-27T01:35:40.029Z,22.67
2019-02-27T01:38:27.831Z,19.57
2019-02-27T01:41:16.070Z,18.43
2019-02-27T01:44:04.178Z,15.60
2019-02-27T01:46:54.536Z,17.40
2019-02-27T01:49:41.931Z,21.53
2019-02-27T01:52:33.952Z,22.70
2019-02-27T01:55:21.827Z,23.53
2019-02-27T01:58:09.611Z,22.93
2019-02-27T02:00:58.119Z,20.33
2019-02-27T02:03:47.461Z,20.63
2019-02-27T02:06:35.320Z,20.27
2019-02-27T02:09:34.369Z,18.13
2019-02-27T02:12:28.812Z,19.73
2019-02-27T02:16:19.416Z,22.43
2019-02-27T02:19:48.775Z,18.37
2019-02-27T02:23:14.086Z,22.57
2019-02-27T02:26:28.021Z,22.70
2019-02-27T02:29:59.101Z,24.00
2019-02-27T02:33:00.007Z,25.27
2019-02-27T02:36:43.154Z,22.53
2019-02-27T02:40:11.079Z,26.13
2019-02-27T02:43:23.696Z,25.17
2019-02-27T02:46:36.078Z,22.87
2019-02-27T02:50:08.534Z,23.00
2019-02-27T02:53:11.829Z,23.63
2019-02-27T02:56:24.749Z,22.30
2019-02-27T02:59:37.912Z,19.17
2019-02-27T03:02:39.976Z,20.40
2019-02-27T03:06:12.201Z,21.20
2019-02-27T03:09:36.592Z,19.37
2019-02-27T03:13:33.352Z,19.63
2019-02-27T03:17:20.393Z,17.60
2019-02-27T03:20:43.965Z,19.83
2019-02-27T03:24:01.420Z,16.73
2019-02-27T03:27:30.938Z,22.00
2019-02-27T03:30:57.581Z,22.50
2019-02-27T03:34:22.043Z,19.40
2019-02-27T03:37:33.439Z,16.77
2019-02-27T03:40:48.127Z,24.97
2019-02-27T03:43:55.916Z,18.80
2019-02-27T03:47:16.681Z,19.07
2019-02-27T03:50:49.411Z,17.33
2019-02-27T03:54:07.677Z,17.80
2019-02-27T03:57:32.915Z,16.77
2019-02-27T04:00:30.834Z,20.47
2019-02-27T04:04:05.846Z,20.80
2019-02-27T04:07:46.292Z,18.67
2019-02-27T04:10:34.427Z,20.00
2019-02-27T04:13:26.413Z,24.73
2019-02-27T04:16:11.902Z,20.17
2019-02-27T04:19:04.574Z,22.73
2019-02-27T04:21:50.010Z,20.27
2019-02-27T04:24:38.000Z,19.17
2019-02-27T04:27:25.972Z,18.47
2019-02-27T04:30:16.468Z,17.73
2019-02-27T04:33:04.332Z,23.27
2019-02-27T04:35:52.701Z,22.83
2019-02-27T04:38:40.687Z,20.17
2019-02-27T04:41:28.865Z,21.27
2019-02-27T04:44:16.937Z,24.23
2019-02-27T04:47:04.967Z,19.73
2019-02-27T04:49:52.950Z,17.93
2019-02-27T04:52:41.137Z,24.83
2019-02-27T04:55:29.321Z,21.83
2019-02-27T04:58:17.412Z,24.80
2019-02-27T05:01:05.574Z,23.93
2019-02-27T05:03:53.515Z,21.73
2019-02-27T05:06:41.404Z,19.00
2019-02-27T05:09:33.544Z,22.03
2019-02-27T05:12:19.296Z,22.63
2019-02-27T05:15:07.231Z,19.73
2019-02-27T05:17:56.219Z,22.07
2019-02-27T05:20:45.670Z,22.50
2019-02-27T05:23:34.186Z,23.90
2019-02-27T05:26:22.324Z,20.23
2019-02-27T05:29:10.489Z,19.47
2019-02-27T05:31:58.698Z,22.70
2019-02-27T05:34:49.828Z,21.13
2019-02-27T05:37:39.260Z,20.73
2019-02-27T05:40:26.668Z,19.63
2019-02-27T05:43:14.534Z,23.43
2019-02-27T05:46:03.267Z,20.33
2019-02-27T05:48:53.352Z,22.57
2019-02-27T05:51:41.187Z,20.50
2019-02-27T05:54:30.022Z,22.53
2019-02-27T05:57:21.051Z,21.53
2019-02-27T06:00:11.801Z,21.20
2019-02-27T06:02:59.820Z,24.83
2019-02-27T06:05:49.784Z,24.40
2019-02-27T06:08:38.112Z,24.90
2019-02-27T06:11:27.056Z,25.03
2019-02-27T06:14:15.864Z,23.30
2019-02-27T06:17:04.029Z,24.10
2019-02-27T06:19:51.697Z,29.73
2019-02-27T06:22:39.736Z,27.97
2019-02-27T06:25:27.399Z,21.07
2019-02-27T06:28:18.525Z,23.87
2019-02-27T06:31:05.118Z,22.97
2019-02-27T06:33:53.263Z,21.53
2019-02-27T06:36:42.875Z,23.10
2019-02-27T06:39:34.165Z,22.60
2019-02-27T06:42:20.259Z,20.33
2019-02-27T06:45:10.211Z,26.20
2019-02-27T06:47:59.377Z,21.87
2019-02-27T06:50:48.900Z,25.77
2019-02-27T06:53:37.628Z,19.53
2019-02-27T06:56:25.677Z,21.07
2019-02-27T06:59:13.453Z,22.33
2019-02-27T07:02:01.367Z,19.13
2019-02-27T07:04:49.479Z,20.93
2019-02-27T07:07:37.601Z,22.93
2019-02-27T07:10:25.340Z,26.27
2019-02-27T07:13:13.194Z,24.33
2019-02-27T07:16:01.526Z,23.23
2019-02-27T07:18:49.721Z,29.80
2019-02-27T07:21:37.884Z,22.70
2019-02-27T07:24:26.121Z,33.10
2019-02-27T07:27:13.877Z,26.17
2019-02-27T07:30:01.561Z,31.40
2019-02-27T07:32:49.747Z,29.83
2019-02-27T07:35:37.857Z,30.07
2019-02-27T07:38:26.357Z,28.73
2019-02-27T07:41:17.475Z,23.57
2019-02-27T07:44:03.617Z,22.27
2019-02-27T07:46:51.563Z,26.07
2019-02-27T07:49:39.514Z,27.40
2019-02-27T07:52:32.112Z,24.70
2019-02-27T07:55:22.013Z,24.40
2019-02-27T07:58:06.131Z,24.83
2019-02-27T08:00:53.787Z,24.33
2019-02-27T08:03:44.813Z,29.17
2019-02-27T08:06:31.633Z,25.50
2019-02-27T08:09:19.411Z,29.60
2019-02-27T08:12:07.105Z,27.87
2019-02-27T08:14:55.069Z,34.47
2019-02-27T08:17:42.852Z,25.87
2019-02-27T08:20:31.127Z,28.30
2019-02-27T08:23:18.772Z,30.87
2019-02-27T08:26:07.025Z,29.47
2019-02-27T08:28:55.192Z,25.83
2019-02-27T08:31:43.377Z,28.73
2019-02-27T08:34:31.336Z,23.63
2019-02-27T08:37:20.280Z,25.23
2019-02-27T08:40:09.270Z,25.07
2019-02-27T08:42:57.309Z,31.80
2019-02-27T08:45:45.698Z,24.87
2019-02-27T08:48:33.586Z,27.90
2019-02-27T08:51:21.764Z,28.03
2019-02-27T08:54:09.800Z,25.70
2019-02-27T08:56:58.010Z,21.07
2019-02-27T08:59:46.102Z,25.03
2019-02-27T09:02:34.282Z,22.77
2019-02-27T09:05:23.452Z,21.23
2019-02-27T09:08:11.425Z,21.83
2019-02-27T09:11:05.363Z,25.50
2019-02-27T09:13:49.200Z,31.53
2019-02-27T09:16:37.277Z,22.63
2019-02-27T09:19:25.236Z,28.40
2019-02-27T09:22:13.218Z,24.63
2019-02-27T09:25:01.257Z,27.60
2019-02-27T09:27:49.218Z,26.00
2019-02-27T09:30:37.250Z,19.50
2019-02-27T09:33:25.132Z,18.77
2019-02-27T09:36:13.110Z,22.73
2019-02-27T09:39:01.105Z,22.13
2019-02-27T09:41:48.950Z,20.70
2019-02-27T09:44:37.268Z,21.60
2019-02-27T09:47:25.911Z,22.03
2019-02-27T09:50:27.197Z,23.70
2019-02-27T09:53:15.150Z,25.23
2019-02-27T09:56:02.930Z,27.07
2019-02-27T09:58:50.634Z,21.23
2019-02-27T10:01:38.466Z,21.80
2019-02-27T10:04:28.818Z,21.37
2019-02-27T10:07:17.112Z,24.17
2019-02-27T10:10:10.238Z,27.27
2019-02-27T10:12:55.799Z,19.53
2019-02-27T10:15:43.765Z,19.27
2019-02-27T10:18:31.511Z,19.17
2019-02-27T10:21:19.185Z,19.73
2019-02-27T10:24:07.525Z,19.43
2019-02-27T10:26:55.609Z,19.30
2019-02-27T10:29:47.765Z,19.07
2019-02-27T10:32:36.459Z,15.43
2019-02-27T10:35:23.147Z,20.23
2019-02-27T10:38:11.102Z,21.70
2019-02-27T10:40:59.169Z,19.70
2019-02-27T10:43:46.874Z,19.13
2019-02-27T10:46:34.904Z,25.27
2019-02-27T10:49:23.125Z,18.80
2019-02-27T10:52:11.435Z,18.93
2019-02-27T10:54:59.287Z,18.20
2019-02-27T10:57:47.178Z,17.13
2019-02-27T11:00:35.195Z,21.37
2019-02-27T11:03:26.406Z,19.67
2019-02-27T11:06:13.089Z,19.47
2019-02-27T11:09:04.504Z,17.23
2019-02-27T11:11:53.754Z,19.67
2019-02-27T11:14:40.548Z,18.90
2019-02-27T11:17:28.197Z,16.97
2019-02-27T11:20:20.301Z,21.07
2019-02-27T11:23:07.110Z,16.53
2019-02-27T11:25:56.963Z,15.97
2019-02-27T11:28:47.578Z,16.70
2019-02-27T11:31:34.777Z,16.20
2019-02-27T11:34:23.160Z,20.87
2019-02-27T11:37:13.787Z,16.87
2019-02-27T11:40:01.033Z,19.10
2019-02-27T11:42:48.961Z,19.67
2019-02-27T11:45:36.951Z,14.47
2019-02-27T11:48:25.110Z,18.10
2019-02-27T11:51:13.959Z,18.97
2019-02-27T11:54:04.205Z,16.20
2019-02-27T11:56:56.197Z,18.73
2019-02-27T11:59:41.588Z,17.63
2019-02-27T12:02:36.727Z,19.47
2019-02-27T12:05:19.449Z,19.77
2019-02-27T12:08:07.264Z,17.07
2019-02-27T12:10:55.182Z,22.37
2019-02-27T12:13:43.452Z,17.90
2019-02-27T12:16:33.343Z,20.53
2019-02-27T12:19:21.398Z,24.07
2019-02-27T12:22:09.628Z,15.50
2019-02-27T12:24:58.348Z,18.13
2019-02-27T12:27:49.929Z,17.53
2019-02-27T12:30:37.341Z,18.03
2019-02-27T12:33:29.143Z,20.23
2019-02-27T12:36:18.736Z,17.80
2019-02-27T12:39:08.179Z,13.47
2019-02-27T12:41:55.837Z,12.73
2019-02-27T12:44:44.011Z,14.33
2019-02-27T12:47:32.106Z,10.10
2019-02-27T12:50:21.241Z,12.40
2019-02-27T12:53:08.892Z,12.97
2019-02-27T12:55:57.049Z,13.90
2019-02-27T12:58:45.013Z,12.57
2019-02-27T13:01:32.988Z,14.43
2019-02-27T13:04:20.964Z,15.80
2019-02-27T13:07:10.773Z,10.83
2019-02-27T13:09:59.370Z,13.33
2019-02-27T13:12:49.164Z,17.50
2019-02-27T13:15:38.350Z,14.97
2019-02-27T13:18:31.600Z,14.97
2019-02-27T13:21:20.187Z,14.93
2019-02-27T13:24:06.020Z,17.37
2019-02-27T13:26:54.200Z,16.00
2019-02-27T13:29:42.462Z,12.27
2019-02-27T13:32:30.563Z,10.53
2019-02-27T13:35:20.134Z,17.87
2019-02-27T13:38:08.441Z,13.43
2019-02-27T13:40:56.679Z,16.53
2019-02-27T13:43:45.316Z,13.37
2019-02-27T13:46:32.916Z,12.43
2019-02-27T13:49:21.186Z,17.37
2019-02-27T13:52:12.312Z,9.43
2019-02-27T13:54:58.765Z,9.63
2019-02-27T13:57:47.016Z,14.57
2019-02-27T14:00:35.012Z,10.83
2019-02-27T14:03:22.894Z,16.30
2019-02-27T14:06:11.238Z,13.40
2019-02-27T14:08:59.240Z,12.13
2019-02-27T14:11:47.245Z,12.00
2019-02-27T14:14:35.373Z,8.13
2019-02-27T14:17:23.363Z,9.80
2019-02-27T14:20:13.580Z,10.63
2019-02-27T14:23:01.519Z,13.73
2019-02-27T14:25:49.748Z,9.97
2019-02-27T14:28:37.652Z,10.47
2019-02-27T14:31:25.656Z,10.03
2019-02-27T14:34:13.475Z,9.50
2019-02-27T14:37:01.721Z,8.10
2019-02-27T14:39:49.844Z,8.37
2019-02-27T14:42:38.146Z,7.77
2019-02-27T14:45:26.146Z,8.67
2019-02-27T14:48:13.763Z,9.17
2019-02-27T14:51:01.694Z,7.60
2019-02-27T14:53:52.633Z,5.17
2019-02-27T14:56:41.612Z,7.60
2019-02-27T14:59:31.332Z,6.30
2019-02-27T15:02:22.066Z,19.90
2019-02-27T15:05:09.283Z,7.60
2019-02-27T15:07:57.112Z,5.07
2019-02-27T15:10:45.465Z,6.33
2019-02-27T15:13:33.698Z,17.40
2019-02-27T15:16:21.860Z,8.60
2019-02-27T15:19:09.731Z,9.20
2019-02-27T15:21:58.063Z,5.67
2019-02-27T15:24:46.366Z,4.50
2019-02-27T15:27:34.228Z,3.83
2019-02-27T15:30:23.515Z,4.47
2019-02-27T15:33:11.562Z,4.33
2019-02-27T15:36:00.084Z,5.70
2019-02-27T15:38:48.012Z,6.33
2019-02-27T15:41:36.195Z,4.23
2019-02-27T15:44:24.232Z,4.67
2019-02-27T15:47:12.657Z,2.73
2019-02-27T15:50:02.615Z,2.87
2019-02-27T15:52:50.068Z,3.50
2019-02-27T15:55:38.006Z,4.13
2019-02-27T15:58:28.176Z,3.33
2019-02-27T16:01:15.372Z,3.50
2019-02-27T16:04:03.368Z,6.93
2019-02-27T16:06:51.477Z,4.03
2019-02-27T16:09:39.599Z,3.77
2019-02-27T16:12:27.906Z,3.33
2019-02-27T16:15:16.954Z,5.00
2019-02-27T16:18:05.635Z,3.03
2019-02-27T16:20:53.708Z,5.30
2019-02-27T16:23:41.538Z,2.63
2019-02-27T16:26:29.599Z,3.50
2019-02-27T16:29:19.971Z,15.23
2019-02-27T16:32:07.326Z,1.90
2019-02-27T16:34:55.487Z,1.50
2019-02-27T16:37:43.798Z,2.27
2019-02-27T16:40:31.969Z,9.63
2019-02-27T16:43:19.879Z,1.87
2019-02-27T16:46:08.851Z,2.60
2019-02-27T16:48:56.748Z,1.90
2019-02-27T16:51:44.573Z,6.60
2019-02-27T16:54:32.355Z,18.90
2019-02-27T16:57:24.186Z,18.00
2019-02-27T17:00:10.592Z,15.27
2019-02-27T17:02:58.385Z,14.40
2019-02-27T17:05:46.354Z,16.77
2019-02-27T17:08:35.654Z,16.70
2019-02-27T17:11:23.618Z,16.27
2019-02-27T17:14:11.856Z,18.50
2019-02-27T17:16:59.975Z,16.63
2019-02-27T17:19:48.224Z,13.33
2019-02-27T17:22:36.278Z,20.03
2019-02-27T17:25:29.058Z,15.97
2019-02-27T17:28:14.482Z,17.43
2019-02-27T17:31:04.159Z,22.73
2019-02-27T17:33:52.703Z,20.10
2019-02-27T17:36:40.602Z,18.10
2019-02-27T17:39:30.564Z,18.97
2019-02-27T17:42:19.339Z,20.73
2019-02-27T17:45:10.107Z,17.80
2019-02-27T17:47:57.857Z,15.43
2019-02-27T17:50:49.543Z,16.37
2019-02-27T17:53:37.819Z,16.10
2019-02-27T17:56:25.674Z,16.20
2019-02-27T17:59:13.893Z,14.87
2019-02-27T18:02:01.958Z,16.50
2019-02-27T18:04:53.017Z,16.80
2019-02-27T18:07:40.316Z,14.73
2019-02-27T18:10:28.751Z,16.20
2019-02-27T18:13:16.663Z,17.23
2019-02-27T18:16:04.787Z,19.87
2019-02-27T18:18:52.882Z,15.67
2019-02-27T18:21:40.917Z,14.37
2019-02-27T18:24:33.324Z,14.00
2019-02-27T18:27:18.960Z,16.10
2019-02-27T18:30:07.910Z,16.50
2019-02-27T18:32:56.287Z,17.13
2019-02-27T18:35:44.262Z,18.03
2019-02-27T18:38:32.405Z,15.60
2019-02-27T18:41:20.541Z,15.93
2019-02-27T18:44:09.054Z,16.67
2019-02-27T18:46:59.785Z,16.33
2019-02-27T18:49:49.048Z,20.03
2019-02-27T18:52:38.233Z,18.17
2019-02-27T18:55:29.601Z,19.93
2019-02-27T18:58:14.660Z,19.50
2019-02-27T19:01:02.617Z,14.90
2019-02-27T19:03:50.540Z,16.40
2019-02-27T19:06:38.843Z,14.70
2019-02-27T19:09:29.295Z,14.77
2019-02-27T19:12:16.785Z,14.40
2019-02-27T19:15:05.023Z,17.37
2019-02-27T19:17:53.077Z,14.03
2019-02-27T19:20:41.201Z,17.07
2019-02-27T19:23:29.432Z,17.90
2019-02-27T19:26:17.504Z,15.47
2019-02-27T19:29:05.934Z,15.37
2019-02-27T19:31:53.856Z,15.07
2019-02-27T19:34:44.723Z,13.47
2019-02-27T19:37:32.005Z,17.67
2019-02-27T19:40:20.518Z,13.80
2019-02-27T19:43:08.337Z,19.17
2019-02-27T19:45:56.702Z,16.67
2019-02-27T19:48:45.043Z,16.17
2019-02-27T19:51:33.253Z,13.80
2019-02-27T19:54:21.255Z,16.90
2019-02-27T19:57:09.459Z,17.80
2019-02-27T19:59:59.109Z,18.70
2019-02-27T20:02:47.183Z,15.93
2019-02-27T20:05:36.385Z,20.90
2019-02-27T20:08:26.350Z,16.97
2019-02-27T20:11:14.624Z,19.00
2019-02-27T20:14:03.165Z,17.17
2019-02-27T20:16:54.920Z,14.10
2019-02-27T20:19:40.465Z,16.63
2019-02-27T20:22:28.524Z,18.07
2019-02-27T20:25:18.016Z,18.07
2019-02-27T20:28:06.079Z,17.37
2019-02-27T20:30:53.749Z,17.13
2019-02-27T20:33:41.654Z,14.67
2019-02-27T20:36:32.389Z,13.47
2019-02-27T20:39:18.878Z,16.47
2019-02-27T20:42:07.296Z,13.53
2019-02-27T20:44:55.310Z,13.80
2019-02-27T20:47:43.581Z,13.73
2019-02-27T20:50:35.768Z,13.73
2019-02-27T20:53:23.707Z,16.87
2019-02-27T20:56:11.941Z,15.27
2019-02-27T20:59:02.005Z,15.20
2019-02-27T21:01:49.664Z,14.53
2019-02-27T21:04:39.168Z,16.20
2019-02-27T21:07:27.131Z,17.20
2019-02-27T21:10:21.009Z,16.27
2019-02-27T21:13:06.821Z,16.20
2019-02-27T21:15:54.782Z,15.00
2019-02-27T21:18:42.631Z,15.87
2019-02-27T21:21:30.639Z,15.83
2019-02-27T21:24:18.722Z,17.50
2019-02-27T21:27:06.406Z,15.00
2019-02-27T21:29:54.760Z,17.43
2019-02-27T21:32:42.515Z,16.37
2019-02-27T21:35:30.679Z,16.93
2019-02-27T21:38:18.375Z,14.70
2019-02-27T21:41:11.359Z,15.33
2019-02-27T21:43:56.574Z,18.27
2019-02-27T21:46:47.245Z,13.80
2019-02-27T21:49:35.548Z,15.17
2019-02-27T21:52:23.559Z,14.83
2019-02-27T21:55:13.004Z,15.23
2019-02-27T21:58:01.442Z,15.70
2019-02-27T22:00:49.458Z,12.90
2019-02-27T22:03:38.392Z,15.47
2019-02-27T22:06:27.438Z,15.40
2019-02-27T22:09:15.678Z,16.33
2019-02-27T22:12:03.468Z,17.40
2019-02-27T22:14:51.105Z,14.53
2019-02-27T22:17:38.838Z,15.00
2019-02-27T22:20:26.973Z,15.60
2019-02-27T22:23:15.195Z,15.63
2019-02-27T22:26:04.273Z,16.17
2019-02-27T22:28:54.347Z,15.90
2019-02-27T22:31:41.740Z,15.57
2019-02-27T22:34:29.983Z,15.33
2019-02-27T22:37:18.566Z,17.37
2019-02-27T22:40:08.179Z,21.17
2019-02-27T22:42:56.255Z,14.80
2019-02-27T22:45:44.390Z,15.13
2019-02-27T22:48:32.516Z,13.87
2019-02-27T22:51:20.461Z,16.10
2019-02-27T22:54:08.663Z,16.47
2019-02-27T22:56:56.871Z,15.87
2019-02-27T22:59:45.177Z,22.17
2019-02-27T23:02:33.410Z,22.93
2019-02-27T23:05:21.258Z,14.47
2019-02-27T23:08:09.307Z,16.97
2019-02-27T23:10:57.990Z,15.30
2019-02-27T23:13:48.418Z,17.27
2019-02-27T23:16:36.364Z,13.67
2019-02-27T23:19:24.417Z,14.80
2019-02-27T23:22:12.410Z,16.57
2019-02-27T23:25:00.531Z,15.67
2019-02-27T23:27:48.362Z,15.83
2019-02-27T23:30:36.216Z,16.03
2019-02-27T23:33:24.722Z,14.83
2019-02-27T23:36:12.947Z,17.03
2019-02-27T23:39:01.142Z,19.30
2019-02-27T23:41:48.642Z,13.10
2019-02-27T23:44:38.785Z,18.93
2019-02-27T23:47:28.702Z,15.20
2019-02-27T23:50:15.807Z,15.30
2019-02-27T23:53:03.315Z,20.60
2019-02-27T23:55:51.170Z,15.03
2019-02-27T23:58:39.414Z,16.40
